This is the latest recevied weather packets stored in our database for station/object HK4LRM-13. If no packets are shown the sender has not sent any weather packets the latest 10 day(s).
| Time | Temp. | Humidity | Pressure | Rain* | Wind** | Luminosity | Snow |
|---|---|---|---|---|---|---|---|
| 1778004645 | 25° C | 59% | 1011 hPa | 0 mm | - | - | - |
| 1778004104 | 25° C | 59% | 1011 hPa | 0 mm | - | - | - |
| 1778003562 | 25° C | 59% | 1011 hPa | 0 mm | - | - | - |
| 1778003022 | 25° C | 59% | 1011 hPa | 0 mm | - | - | - |
| 1778002480 | 25° C | 59% | 1011 hPa | 0 mm | - | - | - |
| 1778001940 | 25° C | 60% | 1012 hPa | 0 mm | - | - | - |
| 1778001399 | 25° C | 60% | 1012 hPa | 0 mm | - | - | - |
| 1778000859 | 25° C | 61% | 1012 hPa | 0 mm | - | - | - |
| 1778000318 | 25° C | 61% | 1012 hPa | 0 mm | - | - | - |
| 1777999777 | 24.44° C | 64% | 1012 hPa | 0 mm | - | - | - |
| 1777999236 | 24.44° C | 64% | 1012 hPa | 0 mm | - | - | - |
| 1777998696 | 25° C | 64% | 1012 hPa | 0 mm | - | - | - |
| 1777998154 | 23.89° C | 67% | 1013 hPa | 0 mm | - | - | - |
| 1777997613 | 23.89° C | 69% | 1013 hPa | 0 mm | - | - | - |
| 1777997073 | 23.33° C | 73% | 1013 hPa | 0 mm | - | - | - |
| 1777996532 | 23.33° C | 72% | 1013 hPa | 0 mm | - | - | - |
| 1777995991 | 23.33° C | 72% | 1013 hPa | 0 mm | - | - | - |
| 1777995451 | 22.78° C | 71% | 1013 hPa | 0 mm | - | - | - |
| 1777994910 | 22.22° C | 70% | 1014 hPa | 0 mm | - | - | - |
| 1777994370 | 22.78° C | 70% | 1014 hPa | 0 mm | - | - | - |
| 1777993827 | 23.33° C | 70% | 1014 hPa | 0 mm | - | - | - |
| 1777993287 | 23.33° C | 70% | 1014 hPa | 0 mm | - | - | - |
| 1777992746 | 23.33° C | 70% | 1014 hPa | 0 mm | - | - | - |
| 1777992203 | 23.33° C | 69% | 1014 hPa | 0 mm | - | - | - |
| 1777991663 | 19.44° C | 83% | 1015 hPa | 0 mm | - | - | - |
* Rain latest hour (hover to see other rain measurements)
** Current wind speed in m/s (hover to see current wind gust speed)